Time;durP1;ratioP1;P1;durP2;ratioP2;P2;SDS_P1;SDS_P2;PMS_P1;PMS_P2;Temp;Humidity;BMP_temperature;BMP_pressure;BME280_temperature;BME280_humidity;BME280_pressure;Samples;Min_cycle;Max_cycle;Signal;HPM_P1;HPM_P2
2023/05/14 00:00:26;;;;;;;13.80;8.40;;;;;;;11.55;60.69;101348.77;104691;1280;98099;-80
2023/05/14 00:03:27;;;;;;;15.10;7.80;;;;;;;11.44;60.65;101346.63;104545;1282;97960;-80
2023/05/14 00:06:12;;;;;;;14.00;9.00;;;;;;;11.34;60.77;101345.13;104550;1280;101390;-80
2023/05/14 00:08:58;;;;;;;15.30;9.70;;;;;;;11.28;61.05;101348.54;104516;1282;99123;-80
2023/05/14 00:11:43;;;;;;;14.90;9.30;;;;;;;11.18;61.35;101349.30;104555;1280;99430;-81
2023/05/14 00:14:29;;;;;;;15.10;10.30;;;;;;;11.13;61.64;101354.89;104384;1277;98069;-80
2023/05/14 00:17:14;;;;;;;15.40;10.60;;;;;;;11.07;62.22;101348.40;104159;1280;98093;-80
2023/05/14 00:20:00;;;;;;;15.80;10.80;;;;;;;11.03;62.37;101350.11;104460;1276;102184;-80
2023/05/14 00:22:45;;;;;;;16.50;11.60;;;;;;;10.96;62.91;101351.58;104352;1280;99147;-80
2023/05/14 00:25:31;;;;;;;17.00;11.20;;;;;;;10.87;63.27;101342.12;104031;1283;97960;-79
2023/05/14 00:28:16;;;;;;;17.20;11.40;;;;;;;10.80;63.62;101338.73;104476;1282;98081;-81
2023/05/14 00:31:01;;;;;;;19.30;12.50;;;;;;;10.75;64.05;101333.91;104435;1278;99813;-82
2023/05/14 00:33:47;;;;;;;18.90;12.30;;;;;;;10.72;64.00;101331.02;104543;1280;102710;-81
2023/05/14 00:36:32;;;;;;;19.00;11.60;;;;;;;10.69;64.41;101332.70;104713;1276;99246;-80
2023/05/14 00:39:18;;;;;;;21.70;11.00;;;;;;;10.64;64.42;101339.30;104613;1282;99008;-79
2023/05/14 00:42:04;;;;;;;9.90;8.30;;;;;;;10.54;64.71;101341.15;104154;1279;98949;-81
2023/05/14 00:44:49;;;;;;;15.20;9.20;;;;;;;10.45;64.85;101339.07;104608;1282;98491;-80
2023/05/14 00:47:35;;;;;;;16.30;9.80;;;;;;;10.39;65.06;101336.60;104329;1280;102264;-79
2023/05/14 00:50:21;;;;;;;15.50;9.00;;;;;;;10.34;65.07;101337.07;104501;1283;99117;-81
2023/05/14 00:53:09;;;;;;;16.40;10.60;;;;;;;10.31;64.90;101335.50;104561;1283;98069;-81
2023/05/14 00:55:57;;;;;;;14.90;10.70;;;;;;;10.31;64.81;101336.90;104586;1287;97997;-80
2023/05/14 00:58:42;;;;;;;15.50;10.40;;;;;;;10.33;64.92;101335.14;104653;1280;99382;-79
2023/05/14 01:01:28;;;;;;;13.70;10.80;;;;;;;10.34;64.96;101332.64;104519;1281;101388;-80
2023/05/14 01:04:14;;;;;;;19.30;11.30;;;;;;;10.33;65.14;101331.36;103982;1280;99901;-80
2023/05/14 01:07:13;;;;;;;14.20;11.10;;;;;;;10.35;65.27;101334.66;104099;1282;97995;-80
2023/05/14 01:10:05;;;;;;;18.20;11.40;;;;;;;10.38;65.24;101334.70;104239;1277;98911;-79
2023/05/14 01:13:03;;;;;;;18.40;12.30;;;;;;;10.40;65.27;101332.31;104262;1280;98529;-80
2023/05/14 01:15:48;;;;;;;18.50;13.20;;;;;;;10.39;65.79;101332.41;104081;1280;101373;-78
2023/05/14 01:18:34;;;;;;;19.90;13.00;;;;;;;10.40;66.30;101328.64;103966;1282;100152;-80
2023/05/14 01:21:36;;;;;;;20.00;13.60;;;;;;;10.40;66.60;101327.14;104076;1282;98504;-79
2023/05/14 01:24:21;;;;;;;20.30;13.50;;;;;;;10.41;66.54;101324.71;104497;1276;98160;-79
2023/05/14 01:27:22;;;;;;;17.50;12.50;;;;;;;10.43;66.43;101322.78;104391;1282;98766;-80
2023/05/14 01:30:35;;;;;;;20.30;14.60;;;;;;;10.41;66.53;101319.52;104041;1277;103006;-80
2023/05/14 01:33:23;;;;;;;18.00;13.00;;;;;;;10.40;66.77;101318.02;104150;1283;100392;-80
2023/05/14 01:36:09;;;;;;;19.50;13.40;;;;;;;10.38;67.11;101318.11;104091;1282;98305;-80
2023/05/14 01:38:56;;;;;;;15.90;12.80;;;;;;;10.33;67.13;101319.33;103946;1284;98040;-79
2023/05/14 01:41:42;;;;;;;17.50;12.80;;;;;;;10.31;67.08;101318.20;104002;1283;98500;-79
2023/05/14 01:44:29;;;;;;;20.70;12.60;;;;;;;10.28;67.11;101318.29;104074;1277;102676;-80
2023/05/14 01:47:15;;;;;;;21.80;13.40;;;;;;;10.26;67.06;101315.52;104039;1290;100075;-79
2023/05/14 01:50:00;;;;;;;22.00;13.00;;;;;;;10.25;66.95;101315.48;104111;1277;98716;-81
2023/05/14 01:52:47;;;;;;;17.60;13.30;;;;;;;10.24;66.92;101310.42;104539;1277;98055;-79
2023/05/14 01:55:32;;;;;;;24.70;13.50;;;;;;;10.22;67.34;101312.42;104874;1276;98459;-80
2023/05/14 01:58:18;;;;;;;18.30;13.30;;;;;;;10.19;67.53;101312.98;104757;1277;101412;-79
2023/05/14 02:01:04;;;;;;;19.80;12.70;;;;;;;10.15;67.60;101308.67;104750;1279;99862;-81
2023/05/14 02:03:50;;;;;;;17.90;13.40;;;;;;;10.13;67.23;101306.55;104785;1283;108105;-81
2023/05/14 02:06:35;;;;;;;20.60;13.80;;;;;;;10.14;67.32;101308.65;104186;1277;98694;-79
2023/05/14 02:09:21;;;;;;;19.00;13.70;;;;;;;10.15;67.51;101307.83;104162;1282;97964;-80
2023/05/14 02:12:07;;;;;;;23.10;13.80;;;;;;;10.15;67.42;101306.92;104073;1283;101374;-79
2023/05/14 02:14:53;;;;;;;18.90;13.40;;;;;;;10.13;67.49;101304.42;104258;1296;99112;-81
2023/05/14 02:17:38;;;;;;;20.10;14.80;;;;;;;10.10;67.25;101304.95;104248;1277;98530;-79
2023/05/14 02:20:24;;;;;;;24.30;15.80;;;;;;;10.07;67.19;101300.77;104397;1280;98009;-81
2023/05/14 02:23:09;;;;;;;22.80;15.60;;;;;;;10.05;67.59;101293.61;104366;1282;98538;-78
2023/05/14 02:25:55;;;;;;;28.00;16.80;;;;;;;10.04;68.13;101295.36;104342;1278;101483;-80
2023/05/14 02:28:41;;;;;;;22.50;16.30;;;;;;;10.02;68.59;101299.58;104209;1276;99184;-80
2023/05/14 02:31:26;;;;;;;27.00;15.90;;;;;;;9.98;68.45;101300.54;104155;1277;97927;-78
2023/05/14 02:34:12;;;;;;;21.30;14.90;;;;;;;9.93;68.66;101297.29;104098;1277;97991;-80
2023/05/14 02:36:57;;;;;;;19.50;13.90;;;;;;;9.86;68.66;101293.50;104049;1282;97988;-80
2023/05/14 02:39:42;;;;;;;18.20;13.60;;;;;;;9.73;68.74;101297.55;104270;1276;110875;-80
2023/05/14 02:42:28;;;;;;;23.60;14.50;;;;;;;9.62;68.79;101299.80;104149;1282;100106;-79
2023/05/14 02:45:13;;;;;;;19.10;14.30;;;;;;;9.49;69.43;101295.20;104191;1276;97937;-79
2023/05/14 02:47:59;;;;;;;24.40;15.30;;;;;;;9.43;70.16;101292.42;104231;1283;98138;-78
2023/05/14 02:50:44;;;;;;;23.70;15.60;;;;;;;9.42;70.48;101293.42;104236;1276;98032;-80
2023/05/14 02:53:30;;;;;;;26.10;14.80;;;;;;;9.45;70.62;101288.13;104360;1279;101319;-80
2023/05/14 02:56:15;;;;;;;25.20;16.50;;;;;;;9.44;70.62;101291.46;104171;1280;99758;-77
2023/05/14 02:59:01;;;;;;;28.20;15.50;;;;;;;9.44;70.84;101290.76;104099;1282;98124;-79
2023/05/14 03:01:47;;;;;;;23.60;15.80;;;;;;;9.44;71.07;101288.00;104174;1282;98522;-78
2023/05/14 03:04:32;;;;;;;24.50;16.70;;;;;;;9.45;71.18;101286.33;104251;1282;98981;-80
2023/05/14 03:07:18;;;;;;;25.50;15.40;;;;;;;9.47;71.09;101284.93;104205;1276;102729;-78
2023/05/14 03:10:04;;;;;;;21.80;16.10;;;;;;;9.44;71.33;101289.83;104741;1280;99175;-80
2023/05/14 03:12:50;;;;;;;23.60;16.80;;;;;;;9.41;71.63;101288.69;104640;1276;98154;-80
2023/05/14 03:15:36;;;;;;;27.30;16.60;;;;;;;9.42;71.71;101293.80;104492;1277;97992;-79
2023/05/14 03:18:21;;;;;;;22.30;15.90;;;;;;;9.44;71.65;101292.13;104111;1276;98552;-79
2023/05/14 03:21:07;;;;;;;22.20;16.50;;;;;;;9.47;71.56;101292.14;104277;1277;102122;-81
2023/05/14 03:23:53;;;;;;;25.80;17.30;;;;;;;9.52;71.38;101307.17;104288;1276;100850;-78
2023/05/14 03:26:38;;;;;;;25.00;16.20;;;;;;;9.56;71.34;101305.14;104703;1276;99552;-79
2023/05/14 03:29:24;;;;;;;25.40;17.50;;;;;;;9.59;71.39;101297.83;104766;1277;97958;-80
2023/05/14 03:32:10;;;;;;;26.60;17.30;;;;;;;9.62;71.25;101293.80;104860;1277;99754;-81
2023/05/14 03:34:55;;;;;;;22.70;16.80;;;;;;;9.63;71.75;101290.46;104458;1277;142861;-78
2023/05/14 03:37:41;;;;;;;23.20;16.80;;;;;;;9.60;71.91;101289.48;104105;1279;100397;-79
2023/05/14 03:40:26;;;;;;;25.40;17.40;;;;;;;9.58;71.92;101287.98;104206;1276;98985;-79
2023/05/14 03:43:11;;;;;;;26.20;16.20;;;;;;;9.59;71.88;101289.44;104220;1276;97902;-79
2023/05/14 03:45:57;;;;;;;23.60;16.10;;;;;;;9.62;71.83;101289.45;104316;1276;99664;-80
2023/05/14 03:48:43;;;;;;;21.10;16.40;;;;;;;9.65;71.93;101285.06;104266;1279;102630;-80
2023/05/14 03:51:30;;;;;;;27.90;17.10;;;;;;;9.69;72.11;101280.39;104275;1276;100657;-80
2023/05/14 03:54:16;;;;;;;23.70;16.70;;;;;;;9.69;72.32;101275.68;104122;1280;98795;-78
2023/05/14 03:57:03;;;;;;;23.80;16.10;;;;;;;9.68;72.39;101273.53;104199;1276;98935;-78
2023/05/14 03:59:48;;;;;;;22.40;15.20;;;;;;;9.66;72.75;101270.30;104290;1276;97954;-79
2023/05/14 04:02:33;;;;;;;25.30;16.80;;;;;;;9.66;72.99;101269.29;104255;1277;102671;-79
2023/05/14 04:05:19;;;;;;;20.10;14.80;;;;;;;9.65;73.12;101274.70;104700;1276;99244;-81
2023/05/14 04:08:05;;;;;;;22.40;15.30;;;;;;;9.65;73.33;101271.83;104133;1276;98744;-80
2023/05/14 04:10:51;;;;;;;23.70;16.00;;;;;;;9.68;73.35;101270.86;104120;1285;98081;-79
2023/05/14 04:13:37;;;;;;;23.70;17.20;;;;;;;9.72;73.62;101272.38;104194;1276;98504;-79
2023/05/14 04:16:22;;;;;;;24.50;16.90;;;;;;;9.79;73.48;101271.90;104078;1279;101640;-80
2023/05/14 04:19:08;;;;;;;23.60;16.60;;;;;;;9.90;73.70;101271.96;104105;1279;99835;-79
2023/05/14 04:21:54;;;;;;;26.00;17.60;;;;;;;9.98;73.98;101272.84;104826;1279;99053;-80
2023/05/14 04:24:40;;;;;;;23.90;17.20;;;;;;;10.05;74.18;101267.66;104767;1277;98081;-80
2023/05/14 04:27:27;;;;;;;27.40;18.30;;;;;;;10.11;74.19;101266.48;104706;1276;97864;-80
2023/05/14 04:30:13;;;;;;;29.00;16.40;;;;;;;10.19;74.38;101262.53;104084;1276;102162;-79
2023/05/14 04:32:59;;;;;;;25.40;17.90;;;;;;;10.27;74.75;101260.05;104130;1281;99177;-79
2023/05/14 04:35:44;;;;;;;25.40;16.10;;;;;;;10.35;75.22;101259.10;104752;1277;99029;-79
2023/05/14 04:38:30;;;;;;;26.90;17.10;;;;;;;10.43;75.19;101258.30;104872;1276;98011;-79
2023/05/14 04:41:16;;;;;;;24.90;16.50;;;;;;;10.50;75.06;101258.89;104189;1277;98564;-79
2023/05/14 04:44:02;;;;;;;23.10;16.20;;;;;;;10.60;74.86;101257.46;104245;1276;111228;-79
2023/05/14 04:46:48;;;;;;;27.80;17.80;;;;;;;10.68;74.81;101260.96;104277;1280;99120;-81
2023/05/14 04:49:33;;;;;;;26.70;17.50;;;;;;;10.77;74.93;101260.30;104220;1279;98017;-80
2023/05/14 04:52:18;;;;;;;29.60;17.40;;;;;;;10.88;75.32;101258.19;104675;1276;98009;-81
2023/05/14 04:55:05;;;;;;;25.40;18.20;;;;;;;10.98;74.95;101259.77;104330;1276;97911;-81
2023/05/14 04:57:51;;;;;;;28.90;19.50;;;;;;;11.07;74.53;101257.78;104194;1280;102668;-80
2023/05/14 05:00:37;;;;;;;24.50;17.20;;;;;;;11.19;74.57;101257.86;104080;1282;100364;-78
2023/05/14 05:03:22;;;;;;;25.10;17.40;;;;;;;11.29;74.68;101257.88;104210;1277;97988;-79
2023/05/14 05:06:08;;;;;;;29.50;17.40;;;;;;;11.40;74.40;101254.09;104127;1280;98007;-78
2023/05/14 05:08:54;;;;;;;27.10;17.70;;;;;;;11.50;73.87;101255.79;104180;1277;98446;-80
2023/05/14 05:11:40;;;;;;;27.60;17.90;;;;;;;11.63;73.80;101252.30;104239;1280;110001;-80
2023/05/14 05:14:25;;;;;;;28.10;17.60;;;;;;;11.73;73.87;101247.58;104282;1279;99179;-79
2023/05/14 05:17:11;;;;;;;29.30;18.00;;;;;;;11.85;73.91;101248.90;104316;1277;98955;-80
2023/05/14 05:19:56;;;;;;;28.20;18.50;;;;;;;11.95;73.44;101251.45;104165;1279;98319;-78
2023/05/14 05:22:42;;;;;;;28.60;17.60;;;;;;;12.06;73.08;101251.39;104260;1279;99664;-78
2023/05/14 05:25:27;;;;;;;23.80;16.80;;;;;;;12.18;73.52;101245.58;104196;1280;101389;-80
2023/05/14 05:28:13;;;;;;;20.90;16.20;;;;;;;12.30;73.67;101246.14;104175;1276;99914;-80
2023/05/14 05:30:58;;;;;;;28.10;16.40;;;;;;;12.42;73.76;101248.86;104242;1276;97985;-79
2023/05/14 05:33:44;;;;;;;23.50;16.20;;;;;;;12.55;73.42;101253.92;104248;1279;98437;-80
2023/05/14 05:36:30;;;;;;;26.80;16.60;;;;;;;12.68;73.35;101256.97;104790;1276;98017;-80
2023/05/14 05:39:16;;;;;;;22.80;15.30;;;;;;;12.81;73.17;101256.81;104770;1279;101432;-80
2023/05/14 05:42:02;;;;;;;24.80;15.80;;;;;;;12.94;73.48;101254.27;104875;1281;100573;-80
2023/05/14 05:44:47;;;;;;;22.30;15.00;;;;;;;13.09;73.77;101254.08;104972;1276;99332;-82
2023/05/14 05:47:32;;;;;;;23.50;14.40;;;;;;;13.25;73.41;101254.16;105019;1279;98376;-81
2023/05/14 05:50:18;;;;;;;18.80;14.10;;;;;;;13.39;73.56;101250.20;104847;1276;98098;-82
2023/05/14 05:53:03;;;;;;;23.20;14.40;;;;;;;13.54;72.98;101254.43;105154;1276;102848;-80
2023/05/14 05:55:50;;;;;;;21.20;14.40;;;;;;;13.69;72.98;101252.35;104328;1282;99113;-80
2023/05/14 05:58:36;;;;;;;23.60;14.50;;;;;;;13.83;72.19;101248.89;104380;1280;98792;-80
2023/05/14 06:01:21;;;;;;;19.40;13.10;;;;;;;13.97;71.28;101246.11;104386;1277;97933;-80
2023/05/14 06:06:22;;;;;;;21.90;13.40;;;;;;;14.25;70.62;101245.01;103609;1287;636218;-82
2023/05/14 06:09:08;;;;;;;21.40;13.00;;;;;;;14.35;70.30;101244.63;105716;1265;95820;-80
2023/05/14 06:11:53;;;;;;;19.20;13.50;;;;;;;14.49;70.22;101242.86;105810;1266;96175;-80
2023/05/14 06:14:39;;;;;;;24.50;13.10;;;;;;;14.62;70.26;101244.04;105758;1268;98598;-80
2023/05/14 06:17:25;;;;;;;18.70;12.30;;;;;;;14.76;70.18;101245.91;105706;1265;99856;-81
2023/05/14 06:20:11;;;;;;;21.50;12.90;;;;;;;14.90;69.64;101245.52;105496;1267;98658;-80
2023/05/14 06:22:57;;;;;;;25.50;13.30;;;;;;;15.04;69.14;101244.04;105425;1262;95976;-79
2023/05/14 06:25:42;;;;;;;21.70;12.30;;;;;;;15.18;69.22;101242.70;106119;1263;95735;-82
2023/05/14 06:28:28;;;;;;;15.40;11.60;;;;;;;15.33;68.44;101240.39;106247;1264;97287;-82
2023/05/14 06:31:13;;;;;;;19.20;12.40;;;;;;;15.47;68.36;101241.54;106167;1262;99075;-82
2023/05/14 06:33:59;;;;;;;18.40;11.90;;;;;;;15.62;68.20;101238.92;106166;1260;98466;-81
2023/05/14 06:36:44;;;;;;;18.60;11.50;;;;;;;15.77;67.76;101240.51;106028;1260;95951;-81
2023/05/14 06:39:30;;;;;;;15.00;10.30;;;;;;;15.90;65.57;101238.23;106097;1259;95972;-81
2023/05/14 06:42:16;;;;;;;15.20;10.80;;;;;;;16.04;64.50;101240.53;106024;1263;98670;-78
2023/05/14 06:45:01;;;;;;;13.70;9.70;;;;;;;16.19;64.56;101239.27;105905;1254;99255;-78
2023/05/14 06:47:46;;;;;;;15.50;9.70;;;;;;;16.35;63.91;101231.47;106221;1253;97762;-79
2023/05/14 06:50:32;;;;;;;13.90;9.70;;;;;;;16.50;63.05;101234.06;106180;1256;95897;-80
2023/05/14 06:53:17;;;;;;;16.60;9.80;;;;;;;16.63;62.60;101232.89;105981;1256;95884;-79
2023/05/14 06:56:03;;;;;;;17.00;9.20;;;;;;;16.77;61.90;101235.15;106437;1254;99920;-79
2023/05/14 06:58:49;;;;;;;13.90;9.00;;;;;;;16.89;61.08;101234.13;105961;1258;99873;-80
2023/05/14 07:01:35;;;;;;;17.80;9.90;;;;;;;17.01;60.51;101228.30;106450;1254;97718;-80
2023/05/14 07:04:21;;;;;;;13.20;8.70;;;;;;;17.13;60.89;101225.20;106433;1256;96103;-80
2023/05/14 07:07:06;;;;;;;16.20;10.00;;;;;;;17.27;61.48;101224.36;106562;1259;95884;-81
2023/05/14 07:09:52;;;;;;;14.50;8.90;;;;;;;17.40;60.15;101224.98;106624;1254;99923;-81
2023/05/14 07:12:37;;;;;;;13.10;9.70;;;;;;;17.51;59.08;101222.11;106396;1254;99138;-87
2023/05/14 07:15:23;;;;;;;15.50;8.40;;;;;;;17.65;57.92;101222.11;106580;1256;97763;-90
2023/05/14 07:18:09;;;;;;;16.60;8.60;;;;;;;17.78;57.01;101213.56;106645;1254;95907;-89
2023/05/14 07:24:05;;;;;;;14.40;8.70;;;;;;;18.00;55.72;101216.16;106757;1257;99945;-89
2023/05/14 07:26:50;;;;;;;13.70;9.00;;;;;;;18.11;55.46;101215.61;106748;1257;99235;-90
2023/05/14 07:29:36;;;;;;;12.90;7.70;;;;;;;18.24;56.09;101212.30;106478;1257;98926;-92
2023/05/14 07:32:27;;;;;;;15.80;6.60;;;;;;;18.36;55.18;101213.84;106654;1257;96216;-93
2023/05/14 07:35:13;;;;;;;9.80;5.50;;;;;;;18.49;54.72;101215.29;106797;1262;95794;-92
2023/05/14 07:37:58;;;;;;;12.50;6.10;;;;;;;18.62;53.22;101216.67;106524;1258;98798;-90
2023/05/14 07:40:44;;;;;;;12.00;5.90;;;;;;;18.73;52.23;101211.60;106491;1257;99259;-90
2023/05/14 07:43:30;;;;;;;12.60;5.30;;;;;;;18.83;50.90;101205.77;106641;1257;98977;-90
2023/05/14 07:46:16;;;;;;;8.40;5.10;;;;;;;18.93;50.83;101202.06;106619;1264;95900;-90
2023/05/14 07:49:02;;;;;;;10.60;5.90;;;;;;;19.03;50.58;101201.05;106303;1257;95792;-87
2023/05/14 07:51:48;;;;;;;7.20;5.20;;;;;;;19.13;49.46;101202.20;106343;1261;98760;-87
2023/05/14 07:54:34;;;;;;;9.10;5.00;;;;;;;19.21;49.22;101199.45;106197;1262;99866;-89
2023/05/14 07:57:20;;;;;;;8.70;4.90;;;;;;;19.30;49.21;101199.59;106250;1265;97779;-89
2023/05/14 08:00:07;;;;;;;13.90;5.50;;;;;;;19.37;48.96;101198.23;106420;1263;96069;-89
2023/05/14 08:02:59;;;;;;;9.00;5.40;;;;;;;19.45;48.37;101194.81;106670;1257;95841;-89
2023/05/14 08:05:45;;;;;;;6.20;4.60;;;;;;;19.52;47.76;101192.78;106477;1262;100944;-91
2023/05/14 08:08:31;;;;;;;7.10;4.80;;;;;;;19.59;47.77;101186.13;106618;1257;99030;-89
2023/05/14 08:11:17;;;;;;;7.70;5.10;;;;;;;19.65;47.21;101184.44;106525;1262;97769;-89
2023/05/14 08:14:02;;;;;;;7.00;5.00;;;;;;;19.72;46.93;101181.42;106477;1257;95273;-90
2023/05/14 08:16:48;;;;;;;10.80;5.20;;;;;;;19.79;46.73;101173.27;106551;1257;95768;-90
2023/05/14 08:19:34;;;;;;;9.50;4.60;;;;;;;19.87;46.70;101170.89;106590;1262;99875;-89
2023/05/14 08:22:20;;;;;;;9.10;5.60;;;;;;;19.95;46.33;101170.88;106727;1257;99200;-89
2023/05/14 08:25:07;;;;;;;8.10;5.30;;;;;;;20.03;45.55;101169.41;106492;1257;97721;-89
2023/05/14 08:27:53;;;;;;;6.90;4.10;;;;;;;20.11;45.33;101164.08;106298;1264;95240;-87
2023/05/14 08:30:39;;;;;;;7.00;3.60;;;;;;;20.21;44.84;101166.67;106288;1256;95945;-89
2023/05/14 08:33:24;;;;;;;5.30;3.40;;;;;;;20.28;44.64;101164.73;106339;1256;99553;-88
2023/05/14 08:36:10;;;;;;;6.00;3.80;;;;;;;20.37;44.71;101164.20;106512;1256;100408;-91
2023/05/14 08:38:56;;;;;;;5.50;3.50;;;;;;;20.48;43.56;101166.13;106386;1257;97739;-88
2023/05/14 08:41:44;;;;;;;7.60;3.90;;;;;;;20.57;42.74;101159.59;106831;1256;95788;-90
2023/05/14 08:44:37;;;;;;;7.20;4.20;;;;;;;20.62;42.04;101155.88;106238;1261;95992;-88
2023/05/14 08:47:24;;;;;;;7.10;3.10;;;;;;;20.71;41.81;101152.42;106434;1257;98647;-88
2023/05/14 08:50:10;;;;;;;5.50;3.00;;;;;;;20.79;41.46;101151.01;106123;1257;100416;-79
2023/05/14 08:52:56;;;;;;;9.60;3.30;;;;;;;20.85;41.12;101150.37;105693;1257;98608;-79
2023/05/14 08:55:43;;;;;;;5.60;3.00;;;;;;;20.94;41.45;101144.95;106692;1257;95870;-80
2023/05/14 08:58:28;;;;;;;6.20;3.60;;;;;;;21.02;41.34;101144.11;105977;1257;95797;-81
2023/05/14 09:01:14;;;;;;;9.80;3.50;;;;;;;21.10;41.82;101148.15;106348;1257;98680;-81
2023/05/14 09:04:05;;;;;;;6.10;3.50;;;;;;;21.17;41.29;101149.38;106376;1256;99124;-80
2023/05/14 09:06:52;;;;;;;7.50;3.10;;;;;;;21.22;41.04;101148.98;106380;1256;98967;-81
2023/05/14 09:09:39;;;;;;;7.70;2.70;;;;;;;21.28;40.50;101143.72;107094;1260;95257;-80
2023/05/14 09:12:25;;;;;;;8.30;2.70;;;;;;;21.34;39.39;101144.77;105790;1265;97129;-82
2023/05/14 09:15:10;;;;;;;5.30;2.60;;;;;;;21.38;38.79;101146.34;105736;1265;98740;-86
2023/05/14 09:17:56;;;;;;;10.40;6.90;;;;;;;21.42;38.84;101144.91;105741;1263;99089;-83
2023/05/14 09:20:41;;;;;;;6.10;3.40;;;;;;;21.49;39.12;101143.06;105849;1259;98997;-80
2023/05/14 09:23:33;;;;;;;3.20;2.90;;;;;;;21.60;39.61;101141.08;105982;1262;95298;-79
2023/05/14 09:26:23;;;;;;;3.80;2.50;;;;;;;21.69;39.11;101137.86;105820;1265;96977;-85
2023/05/14 09:29:10;;;;;;;3.10;1.90;;;;;;;21.72;38.57;101136.15;106361;1263;98711;-81
2023/05/14 09:31:57;;;;;;;3.30;2.60;;;;;;;21.78;38.00;101135.98;105250;1263;100044;-77
2023/05/14 09:34:42;;;;;;;5.50;2.80;;;;;;;21.86;37.93;101136.14;104830;1259;97816;-78
2023/05/14 09:37:28;;;;;;;9.40;2.90;;;;;;;21.94;38.09;101136.66;104931;1265;95815;-77
2023/05/14 09:40:15;;;;;;;3.20;2.40;;;;;;;22.02;37.72;101124.30;105040;1268;96184;-77
2023/05/14 09:43:01;;;;;;;3.30;2.40;;;;;;;22.08;37.56;101121.84;105005;1264;98641;-77
2023/05/14 09:45:46;;;;;;;4.10;2.40;;;;;;;22.15;37.43;101115.50;105005;1265;99071;-77
2023/05/14 09:48:32;;;;;;;8.50;2.40;;;;;;;22.22;37.27;101118.27;104890;1264;97737;-77
2023/05/14 09:51:18;;;;;;;3.40;2.50;;;;;;;22.31;37.34;101113.71;104927;1259;96138;-77
2023/05/14 09:54:05;;;;;;;5.20;3.00;;;;;;;22.37;37.33;101114.30;105055;1263;95886;-77
2023/05/14 09:56:50;;;;;;;7.40;2.50;;;;;;;22.44;37.59;101107.73;105011;1260;98677;-77
2023/05/14 09:59:36;;;;;;;5.50;2.50;;;;;;;22.54;36.95;101108.84;105033;1259;99187;-78
2023/05/14 10:02:26;;;;;;;5.40;2.20;;;;;;;22.61;36.22;101109.34;105036;1259;97733;-78
2023/05/14 10:05:12;;;;;;;4.20;2.30;;;;;;;22.65;36.48;101107.27;104980;1265;96525;-75
2023/05/14 10:08:00;;;;;;;3.20;2.50;;;;;;;22.69;36.55;101099.73;105044;1263;97176;-75
2023/05/14 10:10:49;;;;;;;4.10;2.50;;;;;;;22.74;35.88;101100.08;105083;1259;98847;-77
2023/05/14 10:13:42;;;;;;;3.80;2.40;;;;;;;22.72;35.04;101097.20;104965;1264;100370;-77
2023/05/14 10:16:32;;;;;;;3.20;2.20;;;;;;;22.65;35.32;101092.36;105058;1259;97729;-78
2023/05/14 10:19:20;;;;;;;5.90;2.70;;;;;;;22.53;34.95;101090.42;104966;1265;95929;-78
2023/05/14 10:22:10;;;;;;;4.50;2.30;;;;;;;22.33;34.55;101086.40;104854;1265;96358;-77
2023/05/14 10:24:55;;;;;;;7.60;2.20;;;;;;;22.23;35.03;101087.19;105010;1260;99188;-79
2023/05/14 10:27:42;;;;;;;3.50;2.30;;;;;;;22.27;35.43;101081.55;105000;1263;99757;-78
2023/05/14 10:30:27;;;;;;;2.90;2.20;;;;;;;22.35;34.78;101078.50;104960;1265;98786;-78
2023/05/14 10:33:15;;;;;;;7.90;2.50;;;;;;;22.40;35.52;101076.39;105062;1263;95967;-78
2023/05/14 10:36:06;;;;;;;3.80;2.20;;;;;;;22.50;35.57;101070.40;104970;1261;97243;-79
2023/05/14 10:38:56;;;;;;;7.90;3.00;;;;;;;22.60;35.84;101069.73;105241;1264;98656;-78
2023/05/14 10:41:41;;;;;;;8.50;2.90;;;;;;;22.73;35.54;101063.35;105493;1265;99137;-78
2023/05/14 10:44:27;;;;;;;6.20;2.30;;;;;;;22.82;35.74;101058.20;104950;1260;97748;-77
2023/05/14 10:47:14;;;;;;;8.10;2.70;;;;;;;22.88;35.38;101055.98;104953;1263;96633;-75
2023/05/14 10:50:05;;;;;;;4.90;2.60;;;;;;;22.92;34.97;101047.67;105050;1264;97064;-76
2023/05/14 10:52:51;;;;;;;5.50;2.40;;;;;;;22.98;35.21;101042.27;104994;1260;100008;-77
2023/05/14 10:55:37;;;;;;;8.10;2.30;;;;;;;23.09;34.69;101038.05;104975;1264;100339;-77
2023/05/14 10:58:22;;;;;;;4.80;2.30;;;;;;;23.19;34.36;101029.95;105044;1263;97741;-76
2023/05/14 11:01:10;;;;;;;5.70;2.40;;;;;;;23.26;34.36;101022.27;104922;1264;97217;-78
2023/05/14 11:03:57;;;;;;;4.30;2.20;;;;;;;23.34;33.71;101016.39;104961;1263;97147;-77
2023/05/14 11:06:43;;;;;;;4.00;2.80;;;;;;;23.37;33.62;101004.90;105000;1263;100201;-78
2023/05/14 11:09:29;;;;;;;5.60;2.80;;;;;;;23.40;33.99;101007.48;105602;1263;99546;-77
2023/05/14 11:12:16;;;;;;;10.00;2.70;;;;;;;23.46;33.82;101003.88;105027;1263;100209;-77
2023/05/14 11:15:05;;;;;;;7.00;2.70;;;;;;;23.48;33.39;100999.30;105001;1265;96643;-76
2023/05/14 11:17:52;;;;;;;3.00;2.40;;;;;;;23.48;33.41;100997.39;104998;1263;97084;-77
2023/05/14 11:20:38;;;;;;;7.60;2.70;;;;;;;23.51;33.53;100996.97;105623;1259;100103;-78
2023/05/14 11:23:24;;;;;;;8.70;2.40;;;;;;;23.58;33.59;100995.27;105103;1263;100486;-78
2023/05/14 11:26:10;;;;;;;4.70;2.10;;;;;;;23.64;32.99;100988.38;105013;1265;98506;-78
2023/05/14 11:28:55;;;;;;;3.70;2.30;;;;;;;23.69;32.25;100983.05;105036;1264;96625;-78
2023/05/14 11:31:41;;;;;;;6.90;2.20;;;;;;;23.68;31.68;100971.59;105091;1265;96622;-78
2023/05/14 11:34:27;;;;;;;6.60;2.40;;;;;;;23.70;31.83;100967.51;105082;1264;101318;-78
2023/05/14 11:37:14;;;;;;;6.10;3.00;;;;;;;23.70;31.39;100954.33;105125;1265;99106;-78
2023/05/14 11:40:00;;;;;;;7.40;2.20;;;;;;;23.69;31.46;100950.64;105252;1263;99032;-79
2023/05/14 11:42:50;;;;;;;3.80;2.10;;;;;;;23.71;31.80;100947.12;105325;1263;96628;-79
2023/05/14 11:45:36;;;;;;;2.80;2.10;;;;;;;23.77;32.10;100944.52;105417;1263;97126;-78
2023/05/14 11:48:22;;;;;;;7.60;2.30;;;;;;;23.80;31.67;100945.64;105130;1264;101645;-80
2023/05/14 11:51:08;;;;;;;7.90;2.50;;;;;;;23.79;31.26;100946.01;105167;1263;100359;-77
2023/05/14 11:53:54;;;;;;;6.80;2.50;;;;;;;23.78;31.85;100936.04;105083;1263;97723;-79
2023/05/14 11:56:39;;;;;;;6.00;2.30;;;;;;;23.80;32.21;100935.50;105173;1265;96685;-79
2023/05/14 11:59:30;;;;;;;4.40;3.10;;;;;;;23.73;31.97;100940.56;105392;1262;97140;-79
2023/05/14 12:02:18;;;;;;;2.50;1.80;;;;;;;23.73;31.88;100937.27;105279;1260;100690;-79
2023/05/14 12:05:06;;;;;;;8.40;2.60;;;;;;;23.83;31.81;100932.61;105058;1263;100492;-78
2023/05/14 12:07:51;;;;;;;3.30;2.10;;;;;;;23.89;31.38;100933.31;105064;1259;97824;-79
2023/05/14 12:10:41;;;;;;;4.30;2.10;;;;;;;23.95;31.63;100928.96;105283;1263;97209;-78
2023/05/14 12:13:28;;;;;;;3.90;2.40;;;;;;;24.00;31.75;100925.15;105320;1264;96615;-78
2023/05/14 12:16:14;;;;;;;6.60;2.40;;;;;;;24.08;31.56;100927.40;105105;1264;100074;-78
2023/05/14 12:19:00;;;;;;;5.60;2.60;;;;;;;24.16;31.82;100925.42;104952;1266;100377;-81
2023/05/14 12:21:49;;;;;;;7.10;2.20;;;;;;;24.10;32.17;100922.93;104963;1266;98996;-78
2023/05/14 12:24:35;;;;;;;8.20;2.50;;;;;;;24.05;32.21;100922.36;104982;1264;97253;-78
2023/05/14 12:27:25;;;;;;;4.40;2.20;;;;;;;24.08;32.26;100921.27;105068;1263;96904;-78
2023/05/14 12:30:12;;;;;;;3.10;2.20;;;;;;;24.16;31.81;100917.30;105090;1261;99989;-79
2023/05/14 12:32:57;;;;;;;3.40;2.10;;;;;;;24.20;31.52;100910.52;105117;1264;100308;-78
2023/05/14 12:35:43;;;;;;;6.00;2.30;;;;;;;24.25;31.80;100903.98;105048;1272;99455;-79
2023/05/14 12:38:30;;;;;;;4.10;2.50;;;;;;;24.23;31.18;100903.80;105099;1264;96613;-79